Time;durP1;ratioP1;P1;durP2;ratioP2;P2;SDS_P1;SDS_P2;PMS_P1;PMS_P2;Temp;Humidity;BMP_temperature;BMP_pressure;BME280_temperature;BME280_humidity;BME280_pressure;Samples;Min_cycle;Max_cycle;Signal;HPM_P1;HPM_P2
2022/03/25 00:00:40;;;;;;;29.95;14.15;;;;;;;5.56;nan;102941.38;4947632;28;20031;-45
2022/03/25 00:03:06;;;;;;;34.63;13.60;;;;;;;5.53;nan;102947.03;4947441;28;20572;-45
2022/03/25 00:05:32;;;;;;;29.90;13.48;;;;;;;5.49;nan;102945.69;4947414;28;20105;-45
2022/03/25 00:07:57;;;;;;;29.55;14.65;;;;;;;5.47;nan;102937.06;4947338;28;20087;-45
2022/03/25 00:10:23;;;;;;;27.20;13.30;;;;;;;5.44;nan;102932.06;4948997;28;20480;-46
2022/03/25 00:12:49;;;;;;;31.13;14.48;;;;;;;5.41;nan;102937.72;4947893;28;20027;-46
2022/03/25 00:15:16;;;;;;;28.65;13.73;;;;;;;5.36;nan;102935.50;4948242;28;20027;-46
2022/03/25 00:17:41;;;;;;;28.77;13.48;;;;;;;5.32;nan;102931.50;4943502;28;20121;-44
2022/03/25 00:20:08;;;;;;;29.52;14.20;;;;;;;5.30;nan;102932.66;4945752;28;20031;-46
2022/03/25 00:22:34;;;;;;;27.95;14.48;;;;;;;5.26;nan;102928.66;4945720;28;20514;-45
2022/03/25 00:25:00;;;;;;;28.88;13.75;;;;;;;5.24;nan;102925.34;4944531;28;20038;-45
2022/03/25 00:27:25;;;;;;;29.02;14.18;;;;;;;5.20;nan;102929.28;4945913;28;20027;-45
2022/03/25 00:29:51;;;;;;;28.85;13.23;;;;;;;5.15;nan;102927.94;4947233;28;20146;-45
2022/03/25 00:32:16;;;;;;;29.25;15.18;;;;;;;5.13;nan;102935.25;4947809;28;20037;-46
2022/03/25 00:34:43;;;;;;;31.58;13.80;;;;;;;5.10;nan;102932.91;4943335;28;20078;-46
2022/03/25 00:37:10;;;;;;;33.00;14.93;;;;;;;5.08;nan;102926.91;4942672;28;20030;-48
2022/03/25 00:39:36;;;;;;;32.78;14.95;;;;;;;5.04;nan;102919.44;4941916;28;20025;-46
2022/03/25 00:42:02;;;;;;;31.38;13.52;;;;;;;5.01;nan;102920.56;4944603;28;20038;-48
2022/03/25 00:44:28;;;;;;;29.48;14.25;;;;;;;4.98;nan;102915.56;4944913;28;20023;-48
2022/03/25 00:46:54;;;;;;;29.92;13.65;;;;;;;4.94;nan;102910.72;4944006;28;20090;-47
2022/03/25 00:49:19;;;;;;;32.15;14.60;;;;;;;4.91;nan;102919.84;4945484;28;20469;-46
2022/03/25 00:51:46;;;;;;;28.45;14.07;;;;;;;4.89;nan;102916.53;4941500;28;20123;-45
2022/03/25 00:54:13;;;;;;;30.80;13.65;;;;;;;4.88;nan;102911.38;4944930;28;20034;-47
2022/03/25 00:56:39;;;;;;;37.05;14.60;;;;;;;4.84;nan;102918.78;4943602;28;20381;-45
2022/03/25 00:59:04;;;;;;;31.60;14.27;;;;;;;4.81;nan;102909.31;4944901;28;20027;-46
2022/03/25 01:01:30;;;;;;;29.40;14.70;;;;;;;4.78;nan;102914.97;4944358;28;20037;-45
2022/03/25 01:03:56;;;;;;;30.27;13.23;;;;;;;4.73;nan;102911.94;4943599;28;20110;-47
2022/03/25 01:06:21;;;;;;;31.17;14.93;;;;;;;4.69;nan;102910.59;4945281;28;20349;-46
2022/03/25 01:08:47;;;;;;;38.90;14.70;;;;;;;4.66;nan;102915.38;4941864;28;20617;-47
2022/03/25 01:11:13;;;;;;;29.98;14.70;;;;;;;4.64;nan;102902.25;4944795;28;20069;-46
2022/03/25 01:13:39;;;;;;;35.17;15.65;;;;;;;4.62;nan;102903.41;4946586;28;20106;-47
2022/03/25 01:16:05;;;;;;;32.20;14.82;;;;;;;4.58;nan;102908.19;4941742;28;20033;-45
2022/03/25 01:18:31;;;;;;;30.40;15.18;;;;;;;4.56;nan;102912.81;4945352;28;20388;-48
2022/03/25 01:20:57;;;;;;;28.52;13.93;;;;;;;4.54;nan;102904.19;4945779;28;20033;-46
2022/03/25 01:23:24;;;;;;;28.77;14.02;;;;;;;4.52;nan;102907.00;4947057;28;20019;-48
2022/03/25 01:25:49;;;;;;;27.98;14.05;;;;;;;4.49;nan;102896.69;4947011;28;20038;-45
2022/03/25 01:28:15;;;;;;;29.13;14.75;;;;;;;4.46;nan;102896.97;4945487;28;20023;-46
2022/03/25 01:30:40;;;;;;;30.17;13.48;;;;;;;4.43;nan;102899.94;4945427;28;20072;-46
2022/03/25 01:33:06;;;;;;;30.30;13.98;;;;;;;4.41;nan;102904.59;4941337;28;20039;-46
2022/03/25 01:35:32;;;;;;;34.03;15.38;;;;;;;4.39;nan;102893.28;4945327;28;20388;-47
2022/03/25 01:37:58;;;;;;;34.78;14.18;;;;;;;4.36;nan;102898.09;4942629;28;20038;-46
2022/03/25 01:40:24;;;;;;;31.75;13.85;;;;;;;4.34;nan;102902.72;4946099;28;20023;-46
2022/03/25 01:42:49;;;;;;;30.52;13.55;;;;;;;4.29;nan;102895.19;4944985;28;20039;-48
2022/03/25 01:45:30;;;;;;;31.20;14.90;;;;;;;4.20;nan;102896.97;4943391;28;20508;-46
2022/03/25 01:47:55;;;;;;;33.72;13.90;;;;;;;4.23;nan;102890.50;4946536;28;20794;-45
2022/03/25 01:50:21;;;;;;;31.48;14.38;;;;;;;4.21;nan;102895.16;4944508;28;20109;-45
2022/03/25 01:52:51;;;;;;;35.53;15.32;;;;;;;4.16;nan;102892.97;4944767;28;20023;-46
2022/03/25 01:55:26;;;;;;;34.05;14.73;;;;;;;4.14;nan;102894.09;4942067;28;20124;-45
2022/03/25 01:57:54;;;;;;;31.65;14.98;;;;;;;4.12;nan;102893.41;4941049;28;20102;-45
2022/03/25 02:00:20;;;;;;;33.10;15.00;;;;;;;4.10;nan;102890.06;4941212;28;20104;-45
2022/03/25 02:02:46;;;;;;;37.42;15.93;;;;;;;4.07;nan;102888.56;4944924;28;20102;-45
2022/03/25 02:05:11;;;;;;;35.45;15.68;;;;;;;4.05;nan;102895.00;4942041;28;20025;-46
2022/03/25 02:07:37;;;;;;;36.97;16.70;;;;;;;4.02;nan;102896.16;4942841;28;20066;-46
2022/03/25 02:10:05;;;;;;;42.35;16.45;;;;;;;4.00;nan;102897.28;4943539;28;20031;-49
2022/03/25 02:12:35;;;;;;;35.08;15.18;;;;;;;3.97;nan;102893.13;4943619;28;20031;-45
2022/03/25 02:15:02;;;;;;;35.22;16.75;;;;;;;3.94;nan;102902.19;4941615;28;20528;-46
2022/03/25 02:17:27;;;;;;;37.75;16.83;;;;;;;3.91;nan;102899.84;4943307;28;20023;-46
2022/03/25 02:19:53;;;;;;;39.92;17.77;;;;;;;3.88;nan;102900.16;4942008;28;20508;-46
2022/03/25 02:22:18;;;;;;;32.63;15.32;;;;;;;3.85;nan;102895.16;4942769;28;20174;-46
2022/03/25 02:24:44;;;;;;;35.85;16.65;;;;;;;3.83;nan;102896.31;4943158;28;20031;-46
2022/03/25 02:27:12;;;;;;;38.67;17.67;;;;;;;3.80;nan;102908.06;4941667;28;20031;-46
2022/03/25 02:29:39;;;;;;;31.80;15.68;;;;;;;3.77;nan;102903.06;4940731;28;20098;-46
2022/03/25 02:32:05;;;;;;;33.17;17.38;;;;;;;3.75;nan;102902.34;4945309;28;20139;-46
2022/03/25 02:34:31;;;;;;;32.83;16.25;;;;;;;3.73;nan;102904.31;4938644;28;20086;-47
2022/03/25 02:36:57;;;;;;;31.58;16.00;;;;;;;3.71;nan;102908.94;4942015;28;20110;-47
2022/03/25 02:39:23;;;;;;;34.90;15.65;;;;;;;3.69;nan;102900.31;4941761;28;20437;-46
2022/03/25 02:41:49;;;;;;;36.40;17.23;;;;;;;3.67;nan;102904.91;4940994;28;20639;-45
2022/03/25 02:44:15;;;;;;;38.05;17.48;;;;;;;3.65;nan;102904.25;4942316;28;20039;-46
2022/03/25 02:46:41;;;;;;;36.95;17.27;;;;;;;3.63;nan;102899.09;4943050;28;20035;-45
2022/03/25 02:49:07;;;;;;;39.83;16.88;;;;;;;3.59;nan;102897.72;4941491;28;20366;-47
2022/03/25 02:51:32;;;;;;;36.00;16.75;;;;;;;3.58;nan;102909.28;4942417;28;20556;-46
2022/03/25 02:53:58;;;;;;;33.40;15.93;;;;;;;3.56;nan;102902.47;4940948;28;20545;-47
2022/03/25 02:56:26;;;;;;;39.47;18.15;;;;;;;3.53;nan;102900.97;4945949;28;20058;-47
2022/03/25 02:58:53;;;;;;;35.55;15.80;;;;;;;3.52;nan;102906.41;4942894;28;20030;-46
2022/03/25 03:01:18;;;;;;;38.17;17.52;;;;;;;3.48;nan;102908.53;4940566;28;20031;-46
2022/03/25 03:03:45;;;;;;;35.65;16.50;;;;;;;3.46;nan;102905.19;4942224;28;20979;-45
2022/03/25 03:06:11;;;;;;;36.25;17.70;;;;;;;3.44;nan;102903.69;4938537;28;20114;-46
2022/03/25 03:08:37;;;;;;;36.67;16.38;;;;;;;3.41;nan;102901.31;4942403;28;20509;-46
2022/03/25 03:11:03;;;;;;;34.50;16.17;;;;;;;3.39;nan;102898.81;4942408;28;20035;-47
2022/03/25 03:13:29;;;;;;;39.03;15.23;;;;;;;3.36;nan;102896.44;4946342;28;20028;-46
2022/03/25 03:15:54;;;;;;;31.00;15.43;;;;;;;3.34;nan;102895.78;4941231;28;20393;-45
2022/03/25 03:18:20;;;;;;;33.60;15.52;;;;;;;3.31;nan;102896.91;4943416;28;20060;-46
2022/03/25 03:20:46;;;;;;;35.85;15.25;;;;;;;3.30;nan;102900.53;4942108;28;20461;-46
2022/03/25 03:23:12;;;;;;;40.60;18.20;;;;;;;3.28;nan;102902.50;4944276;28;20027;-47
2022/03/25 03:25:38;;;;;;;35.90;15.68;;;;;;;3.25;nan;102897.50;4940326;28;20031;-49
2022/03/25 03:28:04;;;;;;;35.00;15.27;;;;;;;3.23;nan;102906.56;4941545;28;20031;-46
2022/03/25 03:30:30;;;;;;;36.42;17.42;;;;;;;3.22;nan;102908.38;4943589;28;20032;-47
2022/03/25 03:32:58;;;;;;;37.45;16.90;;;;;;;3.19;nan;102907.84;4942796;28;20039;-46
2022/03/25 03:35:27;;;;;;;36.95;16.45;;;;;;;3.17;nan;102909.81;4947445;28;20047;-46
2022/03/25 03:37:54;;;;;;;37.72;16.63;;;;;;;3.14;nan;102910.09;4947423;28;20090;-45
2022/03/25 03:40:20;;;;;;;33.67;16.10;;;;;;;3.13;nan;102905.78;4943060;28;20374;-47
2022/03/25 03:42:46;;;;;;;39.63;17.58;;;;;;;3.10;nan;102904.25;4946378;28;20772;-46
2022/03/25 03:45:13;;;;;;;41.10;18.73;;;;;;;3.08;nan;102914.19;4945938;28;20035;-46
2022/03/25 03:47:40;;;;;;;37.53;17.42;;;;;;;3.06;nan;102913.50;4945918;28;20074;-46
2022/03/25 03:50:10;;;;;;;39.17;18.80;;;;;;;3.04;nan;102915.41;4944028;28;20042;-46
2022/03/25 03:52:35;;;;;;;39.70;18.83;;;;;;;3.03;nan;102919.06;4942577;28;20470;-46
2022/03/25 03:55:03;;;;;;;35.65;17.33;;;;;;;3.01;nan;102918.38;4946496;28;20039;-45
2022/03/25 03:57:29;;;;;;;40.08;16.05;;;;;;;2.98;nan;102923.97;4945626;28;20668;-45
2022/03/25 03:59:55;;;;;;;37.58;17.48;;;;;;;2.95;nan;102927.72;4945647;28;20086;-50
2022/03/25 04:02:21;;;;;;;49.33;18.67;;;;;;;2.91;nan;102920.22;4944478;28;20035;-48
2022/03/25 04:04:47;;;;;;;41.83;18.52;;;;;;;2.90;nan;102923.84;4945222;28;20027;-49
2022/03/25 04:07:13;;;;;;;40.15;17.48;;;;;;;2.87;nan;102913.53;4946648;28;20027;-49
2022/03/25 04:09:39;;;;;;;38.72;16.10;;;;;;;2.86;nan;102918.00;4944893;28;20027;-48
2022/03/25 04:12:06;;;;;;;40.58;19.48;;;;;;;2.86;nan;102917.16;4947919;28;20235;-46
2022/03/25 04:14:31;;;;;;;44.08;20.45;;;;;;;2.83;nan;102914.81;4946891;28;20098;-47
2022/03/25 04:16:57;;;;;;;44.58;21.50;;;;;;;2.80;nan;102917.75;4946447;28;20027;-47
2022/03/25 04:19:22;;;;;;;41.65;19.80;;;;;;;2.79;nan;102913.44;4946486;28;20102;-47
2022/03/25 04:21:48;;;;;;;41.08;19.67;;;;;;;2.76;nan;102906.63;4946952;28;20038;-47
2022/03/25 04:24:13;;;;;;;41.03;19.55;;;;;;;2.75;nan;102914.69;4945606;28;20015;-48
2022/03/25 04:26:39;;;;;;;40.95;19.48;;;;;;;2.71;nan;102914.16;4946375;28;20457;-48
2022/03/25 04:29:04;;;;;;;45.47;19.45;;;;;;;2.69;nan;102914.31;4943317;28;20039;-48
2022/03/25 04:31:30;;;;;;;39.55;19.15;;;;;;;2.67;nan;102905.66;4945451;28;20042;-47
2022/03/25 04:33:55;;;;;;;42.05;20.10;;;;;;;2.65;nan;102915.53;4937002;28;20035;-47
2022/03/25 04:36:21;;;;;;;46.85;21.70;;;;;;;2.64;nan;102915.69;4946602;28;20027;-48
2022/03/25 04:38:46;;;;;;;42.20;20.33;;;;;;;2.62;nan;102913.19;4945009;28;20031;-47
2022/03/25 04:41:12;;;;;;;42.17;20.40;;;;;;;2.60;nan;102915.16;4941696;28;20023;-48
2022/03/25 04:43:38;;;;;;;48.70;21.80;;;;;;;2.59;nan;102918.78;4940428;28;20035;-47
2022/03/25 04:46:04;;;;;;;41.75;19.38;;;;;;;2.57;nan;102910.16;4943294;28;20049;-47
2022/03/25 04:48:30;;;;;;;45.38;20.65;;;;;;;2.55;nan;102909.47;4943976;28;20504;-48
2022/03/25 04:50:56;;;;;;;48.10;21.88;;;;;;;2.53;nan;102908.78;4944439;28;20474;-47
2022/03/25 04:53:21;;;;;;;44.88;21.50;;;;;;;2.52;nan;102915.03;4945172;28;20038;-47
2022/03/25 04:55:47;;;;;;;42.80;22.10;;;;;;;2.51;nan;102915.16;4942520;28;20034;-46
2022/03/25 04:58:12;;;;;;;48.05;20.02;;;;;;;2.48;nan;102908.34;4944321;28;20114;-47
2022/03/25 05:00:38;;;;;;;47.65;21.98;;;;;;;2.48;nan;102912.78;4944343;28;20050;-47
2022/03/25 05:03:04;;;;;;;49.10;22.98;;;;;;;2.46;nan;102918.22;4944952;28;20031;-47
2022/03/25 05:05:31;;;;;;;49.40;22.00;;;;;;;2.44;nan;102917.53;4941453;28;20027;-46
2022/03/25 05:07:58;;;;;;;51.33;21.73;;;;;;;2.43;nan;102921.16;4943763;28;20461;-46
2022/03/25 05:10:23;;;;;;;46.10;21.38;;;;;;;2.42;nan;102920.31;4943822;28;20445;-45
2022/03/25 05:12:49;;;;;;;44.58;19.42;;;;;;;2.40;nan;102922.28;4946326;28;20033;-46
2022/03/25 05:15:15;;;;;;;44.50;19.67;;;;;;;2.38;nan;102918.94;4943938;28;20035;-46
2022/03/25 05:17:49;;;;;;;47.42;20.17;;;;;;;2.34;nan;102925.50;4943933;28;20039;-45
2022/03/25 05:20:17;;;;;;;56.80;21.30;;;;;;;2.35;nan;102913.94;4945562;28;20134;-46
2022/03/25 05:22:43;;;;;;;43.75;18.92;;;;;;;2.35;nan;102921.03;4943286;28;20109;-46
2022/03/25 05:25:10;;;;;;;50.38;21.40;;;;;;;2.36;nan;102920.06;4945332;28;20023;-46
2022/03/25 05:27:44;;;;;;;64.30;20.90;;;;;;;2.32;nan;102919.50;4945366;28;20078;-46
2022/03/25 05:30:11;;;;;;;50.70;21.13;;;;;;;2.36;nan;102917.44;4943969;28;20031;-45
2022/03/25 05:32:39;;;;;;;48.20;20.02;;;;;;;2.37;nan;102917.28;4945476;28;20500;-45
2022/03/25 05:35:06;;;;;;;53.30;20.65;;;;;;;2.39;nan;102917.13;4943037;28;20275;-46
2022/03/25 05:37:32;;;;;;;50.22;21.65;;;;;;;2.40;nan;102922.28;4943457;28;20027;-46
2022/03/25 05:39:59;;;;;;;52.28;22.17;;;;;;;2.41;nan;102920.47;4943587;28;20035;-46
2022/03/25 05:42:25;;;;;;;57.08;23.52;;;;;;;2.45;nan;102923.66;4946915;28;20031;-46
2022/03/25 05:44:51;;;;;;;58.08;22.88;;;;;;;2.48;nan;102926.84;4941948;28;20552;-45
2022/03/25 05:47:16;;;;;;;46.83;21.50;;;;;;;2.49;nan;102923.22;4945235;28;20058;-47
2022/03/25 05:49:42;;;;;;;46.53;21.73;;;;;;;2.55;nan;102932.44;4945290;28;20494;-46
2022/03/25 05:52:08;;;;;;;52.75;21.45;;;;;;;2.61;nan;102931.84;4942184;28;20047;-47
2022/03/25 05:54:33;;;;;;;50.75;22.52;;;;;;;2.67;nan;102939.22;4940967;28;20038;-46
2022/03/25 05:56:59;;;;;;;44.92;22.08;;;;;;;2.73;nan;102938.66;4945098;28;20023;-46
2022/03/25 05:59:24;;;;;;;53.15;22.75;;;;;;;2.80;nan;102939.75;4944946;28;20033;-45
2022/03/25 06:01:50;;;;;;;53.35;22.88;;;;;;;2.86;nan;102939.16;4946087;28;20552;-46
2022/03/25 06:04:15;;;;;;;47.03;23.35;;;;;;;2.92;nan;102932.50;4946166;28;20058;-47
2022/03/25 06:06:41;;;;;;;52.28;23.67;;;;;;;2.97;nan;102931.06;4942238;28;20111;-48
2022/03/25 06:09:06;;;;;;;58.58;24.02;;;;;;;3.02;nan;102931.47;4944725;28;20027;-47
2022/03/25 06:11:32;;;;;;;49.88;24.33;;;;;;;3.10;nan;102936.03;4940269;28;20050;-46
2022/03/25 06:13:57;;;;;;;58.22;24.45;;;;;;;3.17;nan;102931.81;4941525;28;20073;-48
2022/03/25 06:16:23;;;;;;;57.25;25.30;;;;;;;3.25;nan;102936.41;4946549;28;20038;-46
2022/03/25 06:18:48;;;;;;;53.40;24.48;;;;;;;3.29;nan;102935.97;4943688;28;20027;-46
2022/03/25 06:21:14;;;;;;;59.65;25.50;;;;;;;3.34;nan;102939.00;4946009;28;20456;-46
2022/03/25 06:23:40;;;;;;;58.38;25.10;;;;;;;3.39;nan;102945.66;4942250;28;20034;-45
2022/03/25 06:26:06;;;;;;;50.05;23.67;;;;;;;3.42;nan;102940.09;4945339;28;20493;-46
2022/03/25 06:28:32;;;;;;;54.50;22.67;;;;;;;3.47;nan;102937.84;4944317;28;20034;-46
2022/03/25 06:30:57;;;;;;;57.33;26.40;;;;;;;3.52;nan;102944.34;4946098;28;20033;-45
2022/03/25 06:33:23;;;;;;;49.95;23.48;;;;;;;3.57;nan;102950.03;4944365;28;20039;-46
2022/03/25 06:35:48;;;;;;;53.47;24.73;;;;;;;3.63;nan;102949.47;4943626;28;20050;-45
2022/03/25 06:38:14;;;;;;;53.78;24.20;;;;;;;3.70;nan;102946.19;4944006;28;20023;-48
2022/03/25 06:40:40;;;;;;;61.13;25.67;;;;;;;3.78;nan;102947.16;4942962;28;20118;-46
2022/03/25 06:43:06;;;;;;;57.38;24.38;;;;;;;3.86;nan;102939.25;4941920;28;20106;-47
2022/03/25 06:45:31;;;;;;;46.70;22.55;;;;;;;3.97;nan;102945.34;4943765;28;20486;-49
2022/03/25 06:47:57;;;;;;;50.40;22.60;;;;;;;4.05;nan;102940.09;4939702;28;20023;-46
2022/03/25 06:50:24;;;;;;;46.28;22.55;;;;;;;4.12;nan;102943.81;4941572;28;20058;-47
2022/03/25 06:52:51;;;;;;;47.95;22.73;;;;;;;4.21;nan;102942.91;4944550;28;20059;-46
2022/03/25 06:55:17;;;;;;;49.85;22.85;;;;;;;4.31;nan;102943.66;4946652;28;20027;-47
2022/03/25 06:57:43;;;;;;;53.25;21.95;;;;;;;4.40;nan;102947.22;4944680;28;20039;-47
2022/03/25 07:00:12;;;;;;;46.67;21.23;;;;;;;4.48;nan;102944.59;4944780;28;20430;-47
2022/03/25 07:02:42;;;;;;;48.17;20.60;;;;;;;4.56;nan;102947.34;4942783;28;20397;-47
2022/03/25 07:05:10;;;;;;;48.35;20.80;;;;;;;4.67;nan;102948.91;4941079;28;20230;-46
2022/03/25 07:07:38;;;;;;;45.55;20.05;;;;;;;4.77;nan;102947.81;4945576;28;20035;-47
2022/03/25 07:10:05;;;;;;;47.97;20.35;;;;;;;4.89;nan;102947.56;4943633;28;20035;-46
2022/03/25 07:12:31;;;;;;;50.58;22.63;;;;;;;4.98;nan;102947.44;4942873;28;20698;-47
2022/03/25 07:14:56;;;;;;;44.38;20.27;;;;;;;5.09;nan;102949.00;4943637;28;20090;-46
2022/03/25 07:17:22;;;;;;;49.88;21.75;;;;;;;5.20;nan;102954.03;4942765;28;20042;-46
2022/03/25 07:19:48;;;;;;;54.97;22.23;;;;;;;5.32;nan;102954.59;4946725;28;20027;-47
2022/03/25 07:22:14;;;;;;;44.78;20.50;;;;;;;5.45;nan;102955.00;4944561;28;20031;-46
2022/03/25 07:24:39;;;;;;;45.72;19.73;;;;;;;5.60;nan;102957.88;4945526;28;20054;-47
2022/03/25 07:27:05;;;;;;;48.65;21.30;;;;;;;5.76;nan;102956.09;4946960;28;20055;-47
2022/03/25 07:29:30;;;;;;;45.83;18.77;;;;;;;5.91;nan;102955.47;4943569;28;20027;-47
2022/03/25 07:31:56;;;;;;;50.97;21.20;;;;;;;6.07;nan;102952.84;4946755;28;20126;-45
2022/03/25 07:34:21;;;;;;;47.05;20.08;;;;;;;6.23;nan;102962.69;4945091;28;20020;-47
2022/03/25 07:36:47;;;;;;;42.28;20.42;;;;;;;6.37;nan;102954.03;4942277;28;20114;-46
2022/03/25 07:39:12;;;;;;;43.55;20.45;;;;;;;6.53;nan;102958.53;4937115;28;20115;-46
2022/03/25 07:41:38;;;;;;;42.70;20.80;;;;;;;6.70;nan;102957.53;4946122;28;20022;-46
2022/03/25 07:44:04;;;;;;;42.70;19.17;;;;;;;6.87;nan;102953.84;4943360;28;20061;-46
2022/03/25 07:46:30;;;;;;;47.78;21.80;;;;;;;7.04;nan;102962.63;4947089;28;20106;-47
2022/03/25 07:48:56;;;;;;;49.22;19.92;;;;;;;7.21;nan;102971.41;4936921;28;20110;-47
2022/03/25 07:51:21;;;;;;;47.35;21.25;;;;;;;7.35;nan;102968.00;4941456;28;20078;-47
2022/03/25 07:53:47;;;;;;;50.17;21.98;;;;;;;7.51;nan;102970.63;4941368;28;20063;-46
2022/03/25 07:56:12;;;;;;;52.20;21.90;;;;;;;7.66;nan;102969.88;4942161;28;20521;-46
2022/03/25 07:58:39;;;;;;;46.45;21.17;;;;;;;7.83;nan;102980.31;4944638;28;20743;-45
2022/03/25 08:01:04;;;;;;;49.70;21.42;;;;;;;7.99;nan;102971.38;4945693;28;20035;-48
2022/03/25 08:03:30;;;;;;;49.20;20.98;;;;;;;8.19;nan;102980.56;4946379;28;20493;-46
2022/03/25 08:05:56;;;;;;;48.92;20.95;;;;;;;8.34;nan;102979.84;4941316;28;20035;-46
2022/03/25 08:08:22;;;;;;;50.88;23.25;;;;;;;8.48;nan;102979.06;4938618;28;20030;-46
2022/03/25 08:10:54;;;;;;;48.25;21.45;;;;;;;8.62;nan;102974.78;4947110;28;20053;-46
2022/03/25 08:13:20;;;;;;;48.92;21.80;;;;;;;8.78;nan;102975.44;4942710;28;20050;-46
2022/03/25 08:15:45;;;;;;;45.92;22.15;;;;;;;8.95;nan;102977.94;4942622;28;20039;-47
2022/03/25 08:18:11;;;;;;;44.17;21.80;;;;;;;9.10;nan;102981.47;4942884;28;20027;-46
2022/03/25 08:20:39;;;;;;;50.75;22.63;;;;;;;9.26;nan;102981.28;4940229;28;20031;-48
2022/03/25 08:23:07;;;;;;;43.33;22.05;;;;;;;9.44;nan;102982.75;4939941;28;20027;-48
2022/03/25 08:28:18;;;;;;;52.78;26.00;;;;;;;9.80;nan;102988.97;4948320;28;20037;-47
2022/03/25 08:30:46;;;;;;;57.25;23.88;;;;;;;9.93;nan;102986.47;4943032;28;20150;-47
2022/03/25 08:33:12;;;;;;;52.78;24.27;;;;;;;10.08;nan;102986.41;4946352;28;20058;-51
2022/03/25 08:35:38;;;;;;;50.13;24.50;;;;;;;10.26;nan;102986.84;4941836;28;20114;-47
2022/03/25 08:38:05;;;;;;;50.63;25.02;;;;;;;10.46;nan;102978.16;4943817;28;20046;-48
2022/03/25 08:40:32;;;;;;;54.03;25.05;;;;;;;10.57;nan;102975.75;4946111;28;20031;-46
2022/03/25 08:42:58;;;;;;;58.28;25.30;;;;;;;10.78;nan;102979.47;4945325;28;20113;-50
2022/03/25 08:45:24;;;;;;;66.28;25.40;;;;;;;10.99;nan;102981.25;4947468;28;20106;-46
2022/03/25 08:47:51;;;;;;;54.75;25.52;;;;;;;11.18;nan;102980.53;4943078;28;20046;-47
2022/03/25 08:50:17;;;;;;;57.97;25.02;;;;;;;11.36;nan;102974.66;4945925;28;20039;-46
2022/03/25 08:52:45;;;;;;;53.05;26.88;;;;;;;11.54;nan;102977.63;4945804;28;20034;-48
2022/03/25 08:55:12;;;;;;;57.83;26.58;;;;;;;11.71;nan;102976.25;4943855;28;20031;-47
2022/03/25 08:57:38;;;;;;;55.28;25.40;;;;;;;11.88;nan;102978.63;4939370;28;20500;-47
2022/03/25 09:00:16;;;;;;;51.10;25.42;;;;;;;12.05;nan;102974.53;4944969;28;20232;-47
2022/03/25 09:02:43;;;;;;;54.75;26.77;;;;;;;12.23;nan;102979.31;4947923;28;20552;-48
2022/03/25 09:05:10;;;;;;;56.78;26.75;;;;;;;12.36;nan;102979.31;4945403;28;20046;-49
2022/03/25 09:07:37;;;;;;;53.80;24.98;;;;;;;12.49;nan;102976.63;4947464;28;20027;-48
2022/03/25 09:10:04;;;;;;;52.78;24.63;;;;;;;12.67;nan;102976.00;4946839;28;20483;-49
2022/03/25 09:12:30;;;;;;;46.50;24.02;;;;;;;12.84;nan;102971.03;4938307;28;20039;-48
2022/03/25 09:14:56;;;;;;;48.10;22.85;;;;;;;12.99;nan;102966.25;4946684;28;20397;-47
2022/03/25 09:17:21;;;;;;;48.05;22.50;;;;;;;13.15;nan;102968.50;4940089;28;20054;-47
2022/03/25 09:19:47;;;;;;;51.00;23.35;;;;;;;13.33;nan;102962.47;4944008;28;20525;-47
2022/03/25 09:22:12;;;;;;;45.45;22.88;;;;;;;13.51;nan;102969.84;4944755;28;20031;-47
2022/03/25 09:24:38;;;;;;;49.95;21.67;;;;;;;13.65;nan;102970.63;4944985;28;20483;-48
2022/03/25 09:27:03;;;;;;;40.20;21.08;;;;;;;13.79;nan;102964.13;4943386;28;20489;-50
2022/03/25 09:29:29;;;;;;;42.20;21.17;;;;;;;13.91;nan;102963.22;4944258;28;20049;-49
2022/03/25 09:31:55;;;;;;;40.38;20.83;;;;;;;14.04;nan;102962.31;4937937;28;20458;-47
2022/03/25 09:37:05;;;;;;;38.88;19.75;;;;;;;14.35;nan;102956.06;4943177;28;20096;-48
2022/03/25 09:39:31;;;;;;;37.55;19.40;;;;;;;14.45;nan;102956.44;4943266;28;20425;-50
2022/03/25 09:41:59;;;;;;;38.05;18.42;;;;;;;14.60;nan;102950.72;4947029;28;20027;-47
2022/03/25 09:44:24;;;;;;;32.60;17.88;;;;;;;14.76;nan;102966.34;4938531;28;20118;-48
2022/03/25 09:46:50;;;;;;;44.13;19.58;;;;;;;14.83;nan;102960.88;4944285;28;20125;-47
2022/03/25 09:49:18;;;;;;;33.05;16.15;;;;;;;14.95;nan;102964.50;4945551;28;20023;-47
2022/03/25 09:51:44;;;;;;;38.63;16.90;;;;;;;15.07;nan;102959.16;4946351;28;20106;-49
2022/03/25 09:54:14;;;;;;;31.92;15.40;;;;;;;15.15;nan;102964.28;4939816;28;20027;-48
2022/03/25 09:56:40;;;;;;;32.97;16.58;;;;;;;15.30;nan;102959.34;4941189;28;20023;-48
2022/03/25 09:59:07;;;;;;;34.63;17.33;;;;;;;15.39;nan;102962.53;4944361;28;20034;-47
2022/03/25 10:01:33;;;;;;;31.27;15.65;;;;;;;15.50;nan;102959.09;4943122;28;20051;-48
2022/03/25 10:03:59;;;;;;;29.60;15.43;;;;;;;15.58;nan;102966.06;4941162;28;20031;-48
2022/03/25 10:06:24;;;;;;;30.52;16.33;;;;;;;15.63;nan;102966.25;4940477;28;20035;-48
2022/03/25 10:09:02;;;;;;;33.58;15.43;;;;;;;15.59;nan;102965.84;4944719;28;20031;-47
2022/03/25 10:11:30;;;;;;;30.52;16.52;;;;;;;15.61;nan;102968.31;4943384;28;20502;-47
2022/03/25 10:14:15;;;;;;;28.40;15.27;;;;;;;15.57;nan;102961.69;4945715;28;20405;-47
2022/03/25 10:16:42;;;;;;;30.88;15.60;;;;;;;15.66;nan;102957.69;4944517;28;20046;-48
2022/03/25 10:19:11;;;;;;;30.63;14.80;;;;;;;15.67;nan;102954.75;4937541;28;20029;-47
2022/03/25 10:21:56;;;;;;;32.80;14.73;;;;;;;15.62;nan;102967.31;4942687;28;20031;-49
2022/03/25 10:24:54;;;;;;;24.63;13.75;;;;;;;15.69;nan;102963.44;4944634;28;20294;-48
2022/03/25 10:27:24;;;;;;;28.02;13.60;;;;;;;15.79;nan;102959.34;4943771;28;20110;-51
2022/03/25 10:29:54;;;;;;;25.90;13.15;;;;;;;15.83;nan;102964.09;4942095;28;20035;-49
2022/03/25 10:32:28;;;;;;;24.52;14.38;;;;;;;15.80;nan;102961.00;4940332;28;20124;-51
2022/03/25 10:35:11;;;;;;;27.55;12.52;;;;;;;15.76;nan;102959.81;4940858;28;20599;-49
2022/03/25 10:37:38;;;;;;;31.02;14.13;;;;;;;15.77;nan;102959.59;4940289;28;20101;-50
2022/03/25 10:40:07;;;;;;;30.85;15.05;;;;;;;15.81;nan;102960.81;4938171;28;20478;-50
2022/03/25 10:42:33;;;;;;;32.20;15.10;;;;;;;15.96;nan;102952.25;4940975;28;20087;-48
2022/03/25 10:44:59;;;;;;;33.20;14.90;;;;;;;16.14;nan;102948.66;4940351;28;20030;-47
2022/03/25 10:47:26;;;;;;;23.45;13.80;;;;;;;16.26;nan;102954.91;4945207;28;20061;-47
2022/03/25 10:49:53;;;;;;;28.85;15.48;;;;;;;16.36;nan;102949.78;4944871;28;20453;-47
2022/03/25 10:52:34;;;;;;;27.33;15.85;;;;;;;16.48;nan;102942.47;4938594;28;20035;-51
2022/03/25 10:55:22;;;;;;;30.75;15.02;;;;;;;16.59;nan;102952.50;4940407;28;20175;-46
2022/03/25 10:57:56;;;;;;;29.30;14.68;;;;;;;16.65;nan;102944.47;4942516;28;20051;-50
2022/03/25 11:00:23;;;;;;;26.42;14.98;;;;;;;16.73;nan;102947.72;4941388;28;20295;-46
2022/03/25 11:02:49;;;;;;;23.63;12.68;;;;;;;16.90;nan;102945.13;4941479;28;20039;-47
2022/03/25 11:05:15;;;;;;;26.05;13.38;;;;;;;17.06;nan;102941.69;4942778;28;20029;-47
2022/03/25 11:07:46;;;;;;;26.35;13.90;;;;;;;17.20;nan;102942.22;4941728;28;20054;-49
2022/03/25 11:10:17;;;;;;;33.55;15.77;;;;;;;17.32;nan;102945.72;4939007;28;20054;-48
2022/03/25 11:12:45;;;;;;;31.15;15.35;;;;;;;17.39;nan;102948.28;4943625;28;20464;-47
2022/03/25 11:15:15;;;;;;;31.95;14.35;;;;;;;17.44;nan;102943.00;4944926;28;20023;-48
2022/03/25 11:17:42;;;;;;;25.98;13.73;;;;;;;17.48;nan;102949.56;4945299;28;20050;-47
2022/03/25 11:20:10;;;;;;;22.98;13.15;;;;;;;17.49;nan;102941.19;4945283;28;20035;-48
2022/03/25 11:22:43;;;;;;;21.95;13.77;;;;;;;17.53;nan;102947.78;4938770;28;20089;-47
2022/03/25 11:25:13;;;;;;;26.10;12.07;;;;;;;17.58;nan;102943.50;4943388;28;20743;-47
2022/03/25 11:27:44;;;;;;;23.98;12.43;;;;;;;17.65;nan;102931.47;4941500;28;20035;-51
2022/03/25 11:30:13;;;;;;;27.73;13.57;;;;;;;17.77;nan;102929.56;4938249;28;20494;-47
2022/03/25 11:33:09;;;;;;;24.70;13.25;;;;;;;17.71;nan;102933.25;4938248;28;20046;-47
2022/03/25 11:35:41;;;;;;;23.50;11.68;;;;;;;17.86;nan;102932.69;4928787;28;20064;-48